sensor_id;sensor_type;location;lat;lon;timestamp;P1;durP1;ratioP1;P2;durP2;ratioP2
40204;SDS011;26963;42.666;23.366;2022-09-09T00:01:42;12.20;;;9.82;;
40204;SDS011;26963;42.666;23.366;2022-09-09T00:04:31;12.27;;;9.95;;
40204;SDS011;26963;42.666;23.366;2022-09-09T00:15:35;11.82;;;10.00;;
40204;SDS011;26963;42.666;23.366;2022-09-09T00:18:15;10.80;;;9.70;;
40204;SDS011;26963;42.666;23.366;2022-09-09T00:23:32;18.27;;;10.32;;
40204;SDS011;26963;42.666;23.366;2022-09-09T00:26:09;11.35;;;9.60;;
40204;SDS011;26963;42.666;23.366;2022-09-09T00:28:52;11.68;;;9.77;;
40204;SDS011;26963;42.666;23.366;2022-09-09T00:31:30;12.73;;;9.70;;
40204;SDS011;26963;42.666;23.366;2022-09-09T00:33:58;12.70;;;9.25;;
40204;SDS011;26963;42.666;23.366;2022-09-09T00:36:30;12.18;;;10.20;;
40204;SDS011;26963;42.666;23.366;2022-09-09T00:38:59;11.38;;;10.23;;
40204;SDS011;26963;42.666;23.366;2022-09-09T00:46:56;16.45;;;9.80;;
40204;SDS011;26963;42.666;23.366;2022-09-09T00:56:28;10.82;;;8.52;;
40204;SDS011;26963;42.666;23.366;2022-09-09T00:59:01;9.13;;;8.10;;
40204;SDS011;26963;42.666;23.366;2022-09-09T01:01:40;11.63;;;8.60;;
40204;SDS011;26963;42.666;23.366;2022-09-09T01:04:11;11.13;;;8.35;;
40204;SDS011;26963;42.666;23.366;2022-09-09T01:06:46;9.57;;;7.05;;
40204;SDS011;26963;42.666;23.366;2022-09-09T01:09:36;10.18;;;7.65;;
40204;SDS011;26963;42.666;23.366;2022-09-09T01:12:28;10.95;;;7.45;;
40204;SDS011;26963;42.666;23.366;2022-09-09T01:15:07;8.57;;;6.85;;
40204;SDS011;26963;42.666;23.366;2022-09-09T01:20:12;8.57;;;7.68;;
40204;SDS011;26963;42.666;23.366;2022-09-09T01:28:02;10.55;;;7.93;;
40204;SDS011;26963;42.666;23.366;2022-09-09T01:30:37;9.32;;;8.02;;
40204;SDS011;26963;42.666;23.366;2022-09-09T01:33:04;8.70;;;7.80;;
40204;SDS011;26963;42.666;23.366;2022-09-09T01:35:40;13.80;;;8.70;;
40204;SDS011;26963;42.666;23.366;2022-09-09T01:38:12;13.52;;;8.82;;
40204;SDS011;26963;42.666;23.366;2022-09-09T01:40:39;11.85;;;9.07;;
40204;SDS011;26963;42.666;23.366;2022-09-09T01:43:08;9.93;;;8.90;;
40204;SDS011;26963;42.666;23.366;2022-09-09T01:45:34;10.95;;;9.07;;
40204;SDS011;26963;42.666;23.366;2022-09-09T01:50:55;13.55;;;9.10;;
40204;SDS011;26963;42.666;23.366;2022-09-09T01:53:21;11.32;;;9.45;;
40204;SDS011;26963;42.666;23.366;2022-09-09T01:55:56;12.60;;;9.05;;
40204;SDS011;26963;42.666;23.366;2022-09-09T02:01:42;10.80;;;9.25;;
40204;SDS011;26963;42.666;23.366;2022-09-09T02:05:05;10.10;;;9.07;;
40204;SDS011;26963;42.666;23.366;2022-09-09T02:10:13;10.30;;;9.13;;
40204;SDS011;26963;42.666;23.366;2022-09-09T02:12:49;11.50;;;9.65;;
40204;SDS011;26963;42.666;23.366;2022-09-09T02:15:23;12.85;;;9.68;;
40204;SDS011;26963;42.666;23.366;2022-09-09T02:17:59;11.00;;;8.80;;
40204;SDS011;26963;42.666;23.366;2022-09-09T02:20:30;10.23;;;9.18;;
40204;SDS011;26963;42.666;23.366;2022-09-09T02:22:58;9.90;;;8.90;;
40204;SDS011;26963;42.666;23.366;2022-09-09T02:25:26;10.30;;;9.30;;
40204;SDS011;26963;42.666;23.366;2022-09-09T02:27:54;9.98;;;8.90;;
40204;SDS011;26963;42.666;23.366;2022-09-09T02:30:25;10.75;;;8.93;;
40204;SDS011;26963;42.666;23.366;2022-09-09T02:32:56;11.43;;;8.45;;
40204;SDS011;26963;42.666;23.366;2022-09-09T02:35:23;11.88;;;8.88;;
40204;SDS011;26963;42.666;23.366;2022-09-09T02:37:52;10.18;;;9.10;;
40204;SDS011;26963;42.666;23.366;2022-09-09T02:40:23;11.13;;;9.25;;
40204;SDS011;26963;42.666;23.366;2022-09-09T02:42:48;10.27;;;9.10;;
40204;SDS011;26963;42.666;23.366;2022-09-09T02:45:18;11.75;;;8.30;;
40204;SDS011;26963;42.666;23.366;2022-09-09T02:50:46;10.68;;;9.68;;
40204;SDS011;26963;42.666;23.366;2022-09-09T02:53:20;10.18;;;8.95;;
40204;SDS011;26963;42.666;23.366;2022-09-09T02:58:45;11.27;;;9.13;;
40204;SDS011;26963;42.666;23.366;2022-09-09T03:01:11;12.32;;;9.38;;
40204;SDS011;26963;42.666;23.366;2022-09-09T03:03:40;10.38;;;9.38;;
40204;SDS011;26963;42.666;23.366;2022-09-09T03:06:09;13.80;;;9.45;;
40204;SDS011;26963;42.666;23.366;2022-09-09T03:08:37;10.85;;;8.95;;
40204;SDS011;26963;42.666;23.366;2022-09-09T03:11:02;11.05;;;8.90;;
40204;SDS011;26963;42.666;23.366;2022-09-09T03:13:30;12.52;;;9.48;;
40204;SDS011;26963;42.666;23.366;2022-09-09T03:15:59;12.07;;;9.93;;
40204;SDS011;26963;42.666;23.366;2022-09-09T03:18:27;12.20;;;9.63;;
40204;SDS011;26963;42.666;23.366;2022-09-09T03:20:53;10.27;;;9.27;;
40204;SDS011;26963;42.666;23.366;2022-09-09T03:23:19;11.18;;;9.57;;
40204;SDS011;26963;42.666;23.366;2022-09-09T03:25:49;11.70;;;8.75;;
40204;SDS011;26963;42.666;23.366;2022-09-09T03:28:16;10.88;;;8.95;;
40204;SDS011;26963;42.666;23.366;2022-09-09T03:30:41;10.45;;;8.50;;
40204;SDS011;26963;42.666;23.366;2022-09-09T03:33:07;12.93;;;10.07;;
40204;SDS011;26963;42.666;23.366;2022-09-09T03:35:33;11.55;;;10.05;;
40204;SDS011;26963;42.666;23.366;2022-09-09T03:37:58;11.85;;;9.50;;
40204;SDS011;26963;42.666;23.366;2022-09-09T03:40:25;11.57;;;10.38;;
40204;SDS011;26963;42.666;23.366;2022-09-09T03:42:54;14.20;;;10.27;;
40204;SDS011;26963;42.666;23.366;2022-09-09T03:45:19;11.20;;;10.07;;
40204;SDS011;26963;42.666;23.366;2022-09-09T03:47:57;13.50;;;9.25;;
40204;SDS011;26963;42.666;23.366;2022-09-09T03:50:26;12.98;;;10.45;;
40204;SDS011;26963;42.666;23.366;2022-09-09T03:52:51;19.13;;;11.40;;
40204;SDS011;26963;42.666;23.366;2022-09-09T03:55:20;14.05;;;9.90;;
40204;SDS011;26963;42.666;23.366;2022-09-09T03:57:46;13.90;;;9.82;;
40204;SDS011;26963;42.666;23.366;2022-09-09T04:00:11;12.32;;;9.10;;
40204;SDS011;26963;42.666;23.366;2022-09-09T04:02:40;13.35;;;9.70;;
40204;SDS011;26963;42.666;23.366;2022-09-09T04:05:05;15.57;;;9.82;;
40204;SDS011;26963;42.666;23.366;2022-09-09T04:07:32;11.30;;;10.10;;
40204;SDS011;26963;42.666;23.366;2022-09-09T04:09:57;11.63;;;9.77;;
40204;SDS011;26963;42.666;23.366;2022-09-09T04:12:25;11.90;;;10.00;;
40204;SDS011;26963;42.666;23.366;2022-09-09T04:14:51;14.70;;;12.95;;
40204;SDS011;26963;42.666;23.366;2022-09-09T04:17:16;14.40;;;10.93;;
40204;SDS011;26963;42.666;23.366;2022-09-09T04:22:27;14.25;;;11.30;;
40204;SDS011;26963;42.666;23.366;2022-09-09T04:24:52;11.20;;;10.00;;
40204;SDS011;26963;42.666;23.366;2022-09-09T04:27:18;14.77;;;11.35;;
40204;SDS011;26963;42.666;23.366;2022-09-09T04:29:46;14.88;;;11.85;;
40204;SDS011;26963;42.666;23.366;2022-09-09T04:32:15;17.38;;;11.70;;
40204;SDS011;26963;42.666;23.366;2022-09-09T04:34:40;20.98;;;12.98;;
40204;SDS011;26963;42.666;23.366;2022-09-09T04:37:09;14.80;;;11.75;;
40204;SDS011;26963;42.666;23.366;2022-09-09T04:39:34;12.52;;;10.90;;
40204;SDS011;26963;42.666;23.366;2022-09-09T04:42:00;13.93;;;11.38;;
40204;SDS011;26963;42.666;23.366;2022-09-09T04:44:31;14.98;;;11.75;;
40204;SDS011;26963;42.666;23.366;2022-09-09T04:46:56;13.45;;;11.95;;
40204;SDS011;26963;42.666;23.366;2022-09-09T04:49:35;15.98;;;12.68;;
40204;SDS011;26963;42.666;23.366;2022-09-09T04:52:04;13.23;;;11.75;;
40204;SDS011;26963;42.666;23.366;2022-09-09T04:54:29;15.77;;;11.75;;
40204;SDS011;26963;42.666;23.366;2022-09-09T04:57:00;15.40;;;12.40;;
40204;SDS011;26963;42.666;23.366;2022-09-09T04:59:39;13.65;;;11.10;;
40204;SDS011;26963;42.666;23.366;2022-09-09T05:02:10;16.90;;;11.88;;
40204;SDS011;26963;42.666;23.366;2022-09-09T05:04:39;19.02;;;11.98;;
40204;SDS011;26963;42.666;23.366;2022-09-09T05:07:05;14.80;;;11.40;;
40204;SDS011;26963;42.666;23.366;2022-09-09T05:09:31;17.92;;;11.27;;
40204;SDS011;26963;42.666;23.366;2022-09-09T05:12:03;13.73;;;11.75;;
40204;SDS011;26963;42.666;23.366;2022-09-09T05:14:32;17.17;;;13.30;;
40204;SDS011;26963;42.666;23.366;2022-09-09T05:16:58;18.58;;;12.70;;
40204;SDS011;26963;42.666;23.366;2022-09-09T05:19:26;17.67;;;12.10;;
40204;SDS011;26963;42.666;23.366;2022-09-09T05:24:45;16.80;;;11.07;;
40204;SDS011;26963;42.666;23.366;2022-09-09T05:27:22;14.15;;;10.57;;
40204;SDS011;26963;42.666;23.366;2022-09-09T05:29:49;12.25;;;8.25;;
40204;SDS011;26963;42.666;23.366;2022-09-09T05:32:20;11.73;;;9.55;;
40204;SDS011;26963;42.666;23.366;2022-09-09T05:34:48;13.38;;;8.30;;
40204;SDS011;26963;42.666;23.366;2022-09-09T05:37:13;10.02;;;8.35;;
40204;SDS011;26963;42.666;23.366;2022-09-09T05:39:42;10.38;;;8.32;;
40204;SDS011;26963;42.666;23.366;2022-09-09T05:42:31;16.13;;;9.30;;
40204;SDS011;26963;42.666;23.366;2022-09-09T05:45:07;15.77;;;8.77;;
40204;SDS011;26963;42.666;23.366;2022-09-09T05:47:34;11.13;;;8.38;;
40204;SDS011;26963;42.666;23.366;2022-09-09T05:50:05;11.75;;;8.65;;
40204;SDS011;26963;42.666;23.366;2022-09-09T05:52:33;13.45;;;8.00;;
40204;SDS011;26963;42.666;23.366;2022-09-09T05:55:02;10.55;;;7.32;;
40204;SDS011;26963;42.666;23.366;2022-09-09T05:57:29;13.60;;;11.90;;
40204;SDS011;26963;42.666;23.366;2022-09-09T05:59:55;14.48;;;9.27;;
40204;SDS011;26963;42.666;23.366;2022-09-09T06:02:20;13.05;;;9.25;;
40204;SDS011;26963;42.666;23.366;2022-09-09T06:04:54;12.55;;;10.00;;
40204;SDS011;26963;42.666;23.366;2022-09-09T06:07:20;11.88;;;8.48;;
40204;SDS011;26963;42.666;23.366;2022-09-09T06:12:39;15.80;;;10.25;;
40204;SDS011;26963;42.666;23.366;2022-09-09T06:15:08;14.38;;;10.23;;
40204;SDS011;26963;42.666;23.366;2022-09-09T06:17:34;13.80;;;9.43;;
40204;SDS011;26963;42.666;23.366;2022-09-09T06:23:43;16.38;;;8.27;;
40204;SDS011;26963;42.666;23.366;2022-09-09T06:26:13;12.85;;;8.82;;
40204;SDS011;26963;42.666;23.366;2022-09-09T06:28:43;13.38;;;8.27;;
40204;SDS011;26963;42.666;23.366;2022-09-09T06:31:16;10.73;;;7.78;;
40204;SDS011;26963;42.666;23.366;2022-09-09T06:33:47;12.23;;;7.65;;
40204;SDS011;26963;42.666;23.366;2022-09-09T06:36:18;10.70;;;7.13;;
40204;SDS011;26963;42.666;23.366;2022-09-09T06:38:45;11.80;;;7.15;;
40204;SDS011;26963;42.666;23.366;2022-09-09T06:41:15;8.52;;;6.47;;
40204;SDS011;26963;42.666;23.366;2022-09-09T06:43:46;11.82;;;6.47;;
40204;SDS011;26963;42.666;23.366;2022-09-09T06:46:13;10.00;;;6.20;;
40204;SDS011;26963;42.666;23.366;2022-09-09T06:48:50;11.38;;;5.78;;
40204;SDS011;26963;42.666;23.366;2022-09-09T06:51:23;10.98;;;6.18;;
40204;SDS011;26963;42.666;23.366;2022-09-09T06:53:52;9.45;;;6.18;;
40204;SDS011;26963;42.666;23.366;2022-09-09T06:58:53;8.68;;;5.53;;
40204;SDS011;26963;42.666;23.366;2022-09-09T07:01:26;11.95;;;5.95;;
40204;SDS011;26963;42.666;23.366;2022-09-09T07:03:54;8.27;;;5.50;;
40204;SDS011;26963;42.666;23.366;2022-09-09T07:06:32;11.23;;;5.67;;
40204;SDS011;26963;42.666;23.366;2022-09-09T07:09:20;10.27;;;5.50;;
40204;SDS011;26963;42.666;23.366;2022-09-09T07:11:49;7.43;;;4.90;;
40204;SDS011;26963;42.666;23.366;2022-09-09T07:14:19;7.90;;;5.50;;
40204;SDS011;26963;42.666;23.366;2022-09-09T07:16:45;12.27;;;5.53;;
40204;SDS011;26963;42.666;23.366;2022-09-09T07:19:11;6.93;;;4.88;;
40204;SDS011;26963;42.666;23.366;2022-09-09T07:21:39;7.68;;;4.55;;
40204;SDS011;26963;42.666;23.366;2022-09-09T07:24:13;7.90;;;4.68;;
40204;SDS011;26963;42.666;23.366;2022-09-09T07:26:39;8.43;;;4.32;;
40204;SDS011;26963;42.666;23.366;2022-09-09T07:29:05;7.03;;;4.40;;
40204;SDS011;26963;42.666;23.366;2022-09-09T07:31:32;7.85;;;4.03;;
40204;SDS011;26963;42.666;23.366;2022-09-09T07:34:03;21.23;;;5.03;;
40204;SDS011;26963;42.666;23.366;2022-09-09T07:36:31;7.22;;;4.00;;
40204;SDS011;26963;42.666;23.366;2022-09-09T07:39:04;5.82;;;4.32;;
40204;SDS011;26963;42.666;23.366;2022-09-09T07:41:40;9.38;;;4.13;;
40204;SDS011;26963;42.666;23.366;2022-09-09T07:44:14;6.38;;;4.28;;
40204;SDS011;26963;42.666;23.366;2022-09-09T07:46:46;5.35;;;4.13;;
40204;SDS011;26963;42.666;23.366;2022-09-09T07:49:31;7.78;;;4.30;;
40204;SDS011;26963;42.666;23.366;2022-09-09T07:51:59;6.32;;;3.90;;
40204;SDS011;26963;42.666;23.366;2022-09-09T07:54:28;9.30;;;4.72;;
40204;SDS011;26963;42.666;23.366;2022-09-09T07:56:54;10.38;;;4.22;;
40204;SDS011;26963;42.666;23.366;2022-09-09T07:59:19;7.30;;;4.05;;
40204;SDS011;26963;42.666;23.366;2022-09-09T08:01:46;5.20;;;4.00;;
40204;SDS011;26963;42.666;23.366;2022-09-09T08:04:14;7.65;;;4.15;;
40204;SDS011;26963;42.666;23.366;2022-09-09T08:07:00;7.78;;;3.67;;
40204;SDS011;26963;42.666;23.366;2022-09-09T08:09:28;9.55;;;4.00;;
40204;SDS011;26963;42.666;23.366;2022-09-09T08:11:54;8.73;;;4.00;;
40204;SDS011;26963;42.666;23.366;2022-09-09T08:14:28;6.57;;;4.00;;
40204;SDS011;26963;42.666;23.366;2022-09-09T08:16:58;7.90;;;4.60;;
40204;SDS011;26963;42.666;23.366;2022-09-09T08:19:25;9.13;;;3.78;;
40204;SDS011;26963;42.666;23.366;2022-09-09T08:21:51;5.97;;;4.40;;
40204;SDS011;26963;42.666;23.366;2022-09-09T08:24:19;6.88;;;4.38;;
40204;SDS011;26963;42.666;23.366;2022-09-09T08:26:47;10.05;;;4.40;;
40204;SDS011;26963;42.666;23.366;2022-09-09T08:29:14;7.60;;;4.30;;
40204;SDS011;26963;42.666;23.366;2022-09-09T08:31:42;8.50;;;4.32;;
40204;SDS011;26963;42.666;23.366;2022-09-09T08:34:12;8.88;;;4.47;;
40204;SDS011;26963;42.666;23.366;2022-09-09T08:36:40;6.75;;;4.22;;
40204;SDS011;26963;42.666;23.366;2022-09-09T08:39:08;8.95;;;4.40;;
40204;SDS011;26963;42.666;23.366;2022-09-09T08:47:05;9.95;;;4.80;;
40204;SDS011;26963;42.666;23.366;2022-09-09T08:58:02;13.95;;;5.65;;
40204;SDS011;26963;42.666;23.366;2022-09-09T09:03:38;8.35;;;4.60;;
40204;SDS011;26963;42.666;23.366;2022-09-09T09:12:06;9.48;;;4.70;;
40204;SDS011;26963;42.666;23.366;2022-09-09T09:14:40;10.02;;;4.57;;
40204;SDS011;26963;42.666;23.366;2022-09-09T09:17:17;10.77;;;4.88;;
40204;SDS011;26963;42.666;23.366;2022-09-09T09:19:45;8.02;;;4.75;;
40204;SDS011;26963;42.666;23.366;2022-09-09T09:22:22;6.72;;;4.70;;
40204;SDS011;26963;42.666;23.366;2022-09-09T09:30:17;13.35;;;5.15;;
40204;SDS011;26963;42.666;23.366;2022-09-09T09:33:03;10.40;;;4.82;;
40204;SDS011;26963;42.666;23.366;2022-09-09T09:35:38;10.18;;;4.95;;
40204;SDS011;26963;42.666;23.366;2022-09-09T09:38:16;10.63;;;4.85;;
40204;SDS011;26963;42.666;23.366;2022-09-09T09:41:05;9.45;;;5.10;;
40204;SDS011;26963;42.666;23.366;2022-09-09T09:43:32;6.40;;;4.90;;
40204;SDS011;26963;42.666;23.366;2022-09-09T09:46:05;8.88;;;4.90;;
40204;SDS011;26963;42.666;23.366;2022-09-09T09:51:38;10.70;;;5.43;;
40204;SDS011;26963;42.666;23.366;2022-09-09T09:56:52;8.63;;;5.05;;
40204;SDS011;26963;42.666;23.366;2022-09-09T10:01:53;8.60;;;5.05;;
40204;SDS011;26963;42.666;23.366;2022-09-09T10:04:22;15.13;;;10.40;;
40204;SDS011;26963;42.666;23.366;2022-09-09T10:06:49;7.40;;;5.55;;
40204;SDS011;26963;42.666;23.366;2022-09-09T10:09:26;12.90;;;5.10;;
40204;SDS011;26963;42.666;23.366;2022-09-09T10:22:35;9.77;;;5.47;;
40204;SDS011;26963;42.666;23.366;2022-09-09T10:49:15;7.80;;;5.35;;
40204;SDS011;26963;42.666;23.366;2022-09-09T10:52:17;12.20;;;5.47;;
40204;SDS011;26963;42.666;23.366;2022-09-09T11:00:02;8.88;;;5.45;;
40204;SDS011;26963;42.666;23.366;2022-09-09T11:02:34;8.48;;;5.32;;
40204;SDS011;26963;42.666;23.366;2022-09-09T11:08:15;10.15;;;6.18;;
40204;SDS011;26963;42.666;23.366;2022-09-09T11:10:42;11.40;;;6.28;;
40204;SDS011;26963;42.666;23.366;2022-09-09T11:19:33;10.75;;;6.20;;
40204;SDS011;26963;42.666;23.366;2022-09-09T11:22:26;11.13;;;6.45;;
40204;SDS011;26963;42.666;23.366;2022-09-09T11:24:59;12.15;;;6.78;;
40204;SDS011;26963;42.666;23.366;2022-09-09T11:27:29;10.30;;;6.30;;
40204;SDS011;26963;42.666;23.366;2022-09-09T11:38:28;10.88;;;6.85;;
40204;SDS011;26963;42.666;23.366;2022-09-09T11:41:04;11.40;;;7.68;;
40204;SDS011;26963;42.666;23.366;2022-09-09T11:46:01;12.25;;;7.25;;
40204;SDS011;26963;42.666;23.366;2022-09-09T11:51:50;10.40;;;7.30;;
40204;SDS011;26963;42.666;23.366;2022-09-09T11:54:32;12.63;;;7.55;;
40204;SDS011;26963;42.666;23.366;2022-09-09T11:57:42;12.13;;;7.20;;
40204;SDS011;26963;42.666;23.366;2022-09-09T12:00:04;15.23;;;7.32;;
40204;SDS011;26963;42.666;23.366;2022-09-09T12:02:31;19.63;;;8.02;;
40204;SDS011;26963;42.666;23.366;2022-09-09T12:05:16;13.75;;;7.47;;
40204;SDS011;26963;42.666;23.366;2022-09-09T12:07:58;14.60;;;7.40;;
40204;SDS011;26963;42.666;23.366;2022-09-09T12:10:29;12.95;;;7.45;;
40204;SDS011;26963;42.666;23.366;2022-09-09T12:15:56;12.43;;;7.30;;
40204;SDS011;26963;42.666;23.366;2022-09-09T12:18:24;14.20;;;7.35;;
40204;SDS011;26963;42.666;23.366;2022-09-09T12:23:50;12.75;;;7.18;;
40204;SDS011;26963;42.666;23.366;2022-09-09T12:32:15;12.38;;;7.90;;
40204;SDS011;26963;42.666;23.366;2022-09-09T12:37:27;14.82;;;7.63;;
40204;SDS011;26963;42.666;23.366;2022-09-09T12:40:00;14.35;;;7.10;;
40204;SDS011;26963;42.666;23.366;2022-09-09T12:42:29;13.57;;;7.32;;
40204;SDS011;26963;42.666;23.366;2022-09-09T12:45:03;11.82;;;7.57;;
40204;SDS011;26963;42.666;23.366;2022-09-09T12:50:57;9.57;;;7.57;;
40204;SDS011;26963;42.666;23.366;2022-09-09T12:53:29;12.18;;;7.05;;
40204;SDS011;26963;42.666;23.366;2022-09-09T12:55:59;13.88;;;7.63;;
40204;SDS011;26963;42.666;23.366;2022-09-09T12:58:30;8.82;;;6.97;;
40204;SDS011;26963;42.666;23.366;2022-09-09T13:01:00;12.70;;;7.70;;
40204;SDS011;26963;42.666;23.366;2022-09-09T13:03:30;15.07;;;7.32;;
40204;SDS011;26963;42.666;23.366;2022-09-09T13:05:58;11.30;;;7.22;;
40204;SDS011;26963;42.666;23.366;2022-09-09T13:08:36;12.60;;;7.90;;
40204;SDS011;26963;42.666;23.366;2022-09-09T13:11:03;14.00;;;8.23;;
40204;SDS011;26963;42.666;23.366;2022-09-09T13:13:36;18.05;;;8.13;;
40204;SDS011;26963;42.666;23.366;2022-09-09T13:16:05;13.05;;;7.32;;
40204;SDS011;26963;42.666;23.366;2022-09-09T13:18:44;16.98;;;7.85;;
40204;SDS011;26963;42.666;23.366;2022-09-09T13:21:12;13.77;;;7.53;;
40204;SDS011;26963;42.666;23.366;2022-09-09T13:23:42;16.95;;;7.72;;
40204;SDS011;26963;42.666;23.366;2022-09-09T13:26:22;13.90;;;8.13;;
40204;SDS011;26963;42.666;23.366;2022-09-09T13:28:54;14.85;;;7.78;;
40204;SDS011;26963;42.666;23.366;2022-09-09T13:33:53;11.43;;;7.30;;
40204;SDS011;26963;42.666;23.366;2022-09-09T13:36:27;15.98;;;7.75;;
40204;SDS011;26963;42.666;23.366;2022-09-09T13:38:58;13.50;;;7.38;;
40204;SDS011;26963;42.666;23.366;2022-09-09T13:41:28;13.60;;;7.78;;
40204;SDS011;26963;42.666;23.366;2022-09-09T13:51:48;10.27;;;7.85;;
40204;SDS011;26963;42.666;23.366;2022-09-09T13:54:17;15.88;;;8.20;;
40204;SDS011;26963;42.666;23.366;2022-09-09T13:56:44;10.95;;;8.45;;
40204;SDS011;26963;42.666;23.366;2022-09-09T13:59:11;13.93;;;8.13;;
40204;SDS011;26963;42.666;23.366;2022-09-09T14:01:47;13.38;;;7.90;;
40204;SDS011;26963;42.666;23.366;2022-09-09T14:04:17;12.30;;;7.22;;
40204;SDS011;26963;42.666;23.366;2022-09-09T14:06:45;10.75;;;7.40;;
40204;SDS011;26963;42.666;23.366;2022-09-09T14:09:16;12.52;;;7.70;;
40204;SDS011;26963;42.666;23.366;2022-09-09T14:11:43;13.25;;;7.55;;
40204;SDS011;26963;42.666;23.366;2022-09-09T14:14:11;14.98;;;7.72;;
40204;SDS011;26963;42.666;23.366;2022-09-09T14:16:37;15.85;;;7.63;;
40204;SDS011;26963;42.666;23.366;2022-09-09T14:19:05;15.00;;;8.00;;
40204;SDS011;26963;42.666;23.366;2022-09-09T14:21:31;11.77;;;6.85;;
40204;SDS011;26963;42.666;23.366;2022-09-09T14:23:59;13.27;;;8.18;;
40204;SDS011;26963;42.666;23.366;2022-09-09T14:26:24;11.68;;;7.57;;
40204;SDS011;26963;42.666;23.366;2022-09-09T14:28:54;15.90;;;7.82;;
40204;SDS011;26963;42.666;23.366;2022-09-09T14:31:20;12.85;;;7.25;;
40204;SDS011;26963;42.666;23.366;2022-09-09T14:33:46;11.70;;;7.10;;
40204;SDS011;26963;42.666;23.366;2022-09-09T14:36:12;9.90;;;7.13;;
40204;SDS011;26963;42.666;23.366;2022-09-09T14:38:38;11.52;;;7.07;;
40204;SDS011;26963;42.666;23.366;2022-09-09T14:41:10;10.73;;;6.72;;
40204;SDS011;26963;42.666;23.366;2022-09-09T14:43:42;13.40;;;7.55;;
40204;SDS011;26963;42.666;23.366;2022-09-09T14:46:09;11.60;;;6.90;;
40204;SDS011;26963;42.666;23.366;2022-09-09T14:48:49;14.27;;;7.30;;
40204;SDS011;26963;42.666;23.366;2022-09-09T14:51:19;13.32;;;7.10;;
40204;SDS011;26963;42.666;23.366;2022-09-09T14:53:57;13.13;;;7.13;;
40204;SDS011;26963;42.666;23.366;2022-09-09T14:56:33;14.80;;;7.13;;
40204;SDS011;26963;42.666;23.366;2022-09-09T14:59:02;11.70;;;7.93;;
40204;SDS011;26963;42.666;23.366;2022-09-09T15:01:28;13.18;;;7.50;;
40204;SDS011;26963;42.666;23.366;2022-09-09T15:03:59;16.13;;;7.50;;
40204;SDS011;26963;42.666;23.366;2022-09-09T15:06:28;17.55;;;7.32;;
40204;SDS011;26963;42.666;23.366;2022-09-09T15:08:55;12.77;;;7.32;;
40204;SDS011;26963;42.666;23.366;2022-09-09T15:11:25;11.75;;;7.45;;
40204;SDS011;26963;42.666;23.366;2022-09-09T15:13:53;13.50;;;7.30;;
40204;SDS011;26963;42.666;23.366;2022-09-09T15:16:23;13.45;;;7.70;;
40204;SDS011;26963;42.666;23.366;2022-09-09T15:18:51;14.00;;;6.93;;
40204;SDS011;26963;42.666;23.366;2022-09-09T15:21:19;14.52;;;7.43;;
40204;SDS011;26963;42.666;23.366;2022-09-09T15:23:47;15.27;;;7.82;;
40204;SDS011;26963;42.666;23.366;2022-09-09T15:26:17;11.60;;;7.80;;
40204;SDS011;26963;42.666;23.366;2022-09-09T15:28:43;11.45;;;7.80;;
40204;SDS011;26963;42.666;23.366;2022-09-09T15:31:13;12.80;;;7.40;;
40204;SDS011;26963;42.666;23.366;2022-09-09T15:33:49;15.77;;;7.25;;
40204;SDS011;26963;42.666;23.366;2022-09-09T15:36:25;13.80;;;7.32;;
40204;SDS011;26963;42.666;23.366;2022-09-09T15:38:53;10.07;;;7.55;;
40204;SDS011;26963;42.666;23.366;2022-09-09T15:41:20;11.25;;;6.95;;
40204;SDS011;26963;42.666;23.366;2022-09-09T15:43:52;18.73;;;7.50;;
40204;SDS011;26963;42.666;23.366;2022-09-09T15:46:43;15.50;;;7.60;;
40204;SDS011;26963;42.666;23.366;2022-09-09T15:49:33;17.42;;;7.03;;
40204;SDS011;26963;42.666;23.366;2022-09-09T15:52:02;11.43;;;7.30;;
40204;SDS011;26963;42.666;23.366;2022-09-09T15:54:30;13.32;;;7.80;;
40204;SDS011;26963;42.666;23.366;2022-09-09T15:56:58;15.02;;;7.63;;
40204;SDS011;26963;42.666;23.366;2022-09-09T15:59:29;15.98;;;7.10;;
40204;SDS011;26963;42.666;23.366;2022-09-09T16:01:56;13.43;;;7.45;;
40204;SDS011;26963;42.666;23.366;2022-09-09T16:04:25;12.85;;;7.07;;
40204;SDS011;26963;42.666;23.366;2022-09-09T16:07:02;14.20;;;6.90;;
40204;SDS011;26963;42.666;23.366;2022-09-09T16:09:29;17.10;;;7.70;;
40204;SDS011;26963;42.666;23.366;2022-09-09T16:11:56;11.93;;;7.28;;
40204;SDS011;26963;42.666;23.366;2022-09-09T16:14:26;12.00;;;7.55;;
40204;SDS011;26963;42.666;23.366;2022-09-09T16:16:52;16.30;;;8.40;;
40204;SDS011;26963;42.666;23.366;2022-09-09T16:19:20;16.15;;;7.25;;
40204;SDS011;26963;42.666;23.366;2022-09-09T16:21:46;14.63;;;7.25;;
40204;SDS011;26963;42.666;23.366;2022-09-09T16:24:15;14.70;;;6.68;;
40204;SDS011;26963;42.666;23.366;2022-09-09T16:26:44;15.20;;;7.32;;
40204;SDS011;26963;42.666;23.366;2022-09-09T16:29:14;15.15;;;7.05;;
40204;SDS011;26963;42.666;23.366;2022-09-09T16:31:42;13.63;;;7.37;;
40204;SDS011;26963;42.666;23.366;2022-09-09T16:34:09;16.95;;;8.88;;
40204;SDS011;26963;42.666;23.366;2022-09-09T16:36:40;18.15;;;10.35;;
40204;SDS011;26963;42.666;23.366;2022-09-09T16:39:08;22.92;;;18.50;;
40204;SDS011;26963;42.666;23.366;2022-09-09T16:41:36;28.67;;;21.33;;
40204;SDS011;26963;42.666;23.366;2022-09-09T16:44:04;26.42;;;18.35;;
40204;SDS011;26963;42.666;23.366;2022-09-09T16:46:35;13.75;;;10.80;;
40204;SDS011;26963;42.666;23.366;2022-09-09T16:49:20;14.80;;;9.77;;
40204;SDS011;26963;42.666;23.366;2022-09-09T16:51:52;15.57;;;9.68;;
40204;SDS011;26963;42.666;23.366;2022-09-09T16:54:30;22.38;;;9.43;;
40204;SDS011;26963;42.666;23.366;2022-09-09T16:57:01;23.58;;;11.45;;
40204;SDS011;26963;42.666;23.366;2022-09-09T16:59:27;22.92;;;10.60;;
40204;SDS011;26963;42.666;23.366;2022-09-09T17:01:53;23.23;;;12.05;;
40204;SDS011;26963;42.666;23.366;2022-09-09T17:04:20;23.35;;;11.63;;
40204;SDS011;26963;42.666;23.366;2022-09-09T17:06:50;15.13;;;10.20;;
40204;SDS011;26963;42.666;23.366;2022-09-09T17:09:17;17.48;;;10.02;;
40204;SDS011;26963;42.666;23.366;2022-09-09T17:11:44;17.42;;;10.77;;
40204;SDS011;26963;42.666;23.366;2022-09-09T17:14:16;22.42;;;10.40;;
40204;SDS011;26963;42.666;23.366;2022-09-09T17:16:43;19.73;;;10.07;;
40204;SDS011;26963;42.666;23.366;2022-09-09T17:19:09;16.38;;;10.93;;
40204;SDS011;26963;42.666;23.366;2022-09-09T17:21:36;19.00;;;11.98;;
40204;SDS011;26963;42.666;23.366;2022-09-09T17:24:02;18.45;;;11.07;;
40204;SDS011;26963;42.666;23.366;2022-09-09T17:26:32;23.85;;;11.50;;
40204;SDS011;26963;42.666;23.366;2022-09-09T17:28:58;14.68;;;9.50;;
40204;SDS011;26963;42.666;23.366;2022-09-09T17:31:44;19.92;;;10.40;;
40204;SDS011;26963;42.666;23.366;2022-09-09T17:34:09;14.75;;;10.45;;
40204;SDS011;26963;42.666;23.366;2022-09-09T17:36:35;20.63;;;10.30;;
40204;SDS011;26963;42.666;23.366;2022-09-09T17:39:03;20.58;;;12.63;;
40204;SDS011;26963;42.666;23.366;2022-09-09T17:41:36;20.75;;;11.60;;
40204;SDS011;26963;42.666;23.366;2022-09-09T17:44:03;19.13;;;11.07;;
40204;SDS011;26963;42.666;23.366;2022-09-09T17:46:36;15.15;;;9.10;;
40204;SDS011;26963;42.666;23.366;2022-09-09T17:49:17;17.40;;;8.43;;
40204;SDS011;26963;42.666;23.366;2022-09-09T17:51:48;13.48;;;8.80;;